Time;durP1;ratioP1;P1;durP2;ratioP2;P2;SDS_P1;SDS_P2;PMS_P1;PMS_P2;Temp;Humidity;BMP_temperature;BMP_pressure;BME280_temperature;BME280_humidity;BME280_pressure;Samples;Min_cycle;Max_cycle;Signal;HPM_P1;HPM_P2
2022/10/25 00:03:11;;;;;;;1.75;1.50;;;18.70;62.00;;;17.97;61.29;100870.75;12250825;19;20472;-86
2022/10/25 00:07:13;;;;;;;2.95;1.75;;;18.70;62.10;;;17.92;61.22;100864.03;12249595;19;20098;-86
2022/10/25 00:11:23;;;;;;;2.60;1.35;;;18.70;62.10;;;17.85;61.25;100851.47;12251184;19;20010;-86
2022/10/25 00:15:24;;;;;;;1.80;1.52;;;18.70;62.20;;;17.91;61.19;100872.94;12249968;19;20002;-86
2022/10/25 00:19:26;;;;;;;3.85;1.90;;;18.70;62.30;;;17.83;61.27;100854.25;12259183;19;20021;-86
2022/10/25 00:23:28;;;;;;;3.35;1.70;;;18.80;62.40;;;17.69;60.91;100831.59;12261993;19;20015;-86
2022/10/25 00:27:30;;;;;;;3.15;1.55;;;18.60;62.20;;;17.87;61.15;100868.03;12259073;19;20003;-86
2022/10/25 00:31:31;;;;;;;1.30;1.20;;;18.60;62.20;;;17.57;61.27;100821.19;12265265;19;20017;-86
2022/10/25 00:35:35;;;;;;;2.67;1.42;;;18.70;62.30;;;17.60;61.08;100826.22;12264038;19;20010;-86
2022/10/25 00:39:37;;;;;;;4.57;1.90;;;18.80;62.50;;;17.77;61.33;100870.56;12263499;19;20337;-86
2022/10/25 00:43:40;;;;;;;6.18;1.48;;;18.60;62.30;;;17.79;61.08;100873.09;12265174;19;20464;-87
2022/10/25 00:47:47;;;;;;;2.97;1.45;;;18.50;62.50;;;17.54;61.23;100829.38;12262946;19;20043;-86
2022/10/25 00:51:58;;;;;;;2.13;1.50;;;18.60;62.50;;;17.66;61.34;100858.25;12261392;19;20006;-86
2022/10/25 00:56:32;;;;;;;2.13;1.30;;;18.50;62.50;;;17.69;61.24;100863.28;12259639;19;20551;-86
2022/10/25 01:00:35;;;;;;;2.95;1.45;;;18.50;62.60;;;17.69;61.19;100871.22;12264292;19;20048;-86
2022/10/25 01:04:37;;;;;;;1.52;1.30;;;18.60;62.70;;;17.68;61.20;100872.16;12265893;19;20468;-85
2022/10/25 01:08:41;;;;;;;3.15;1.65;;;18.50;62.70;;;17.62;61.15;100862.09;12258705;19;20544;-86
2022/10/25 01:12:43;;;;;;;2.27;1.33;;;18.50;62.70;;;17.68;61.30;100868.69;12265206;19;20003;-86
2022/10/25 01:17:03;;;;;;;3.08;2.17;;;18.60;62.80;;;17.66;61.26;100881.16;12261151;19;20300;-86
2022/10/25 01:21:54;;;;;;;1.80;1.10;;;18.40;62.70;;;17.63;61.37;100862.94;12262647;19;20490;-86
2022/10/25 01:26:37;;;;;;;1.63;1.50;;;18.40;62.70;;;17.58;61.50;100852.78;12261091;19;20027;-86
2022/10/25 01:30:59;;;;;;;4.05;1.67;;;18.40;62.80;;;17.62;61.46;100856.00;12260613;19;20031;-86
2022/10/25 01:35:21;;;;;;;5.05;1.83;;;18.40;62.80;;;17.61;61.54;100859.63;12264868;19;20010;-86
2022/10/25 01:39:37;;;;;;;6.50;1.50;;;18.40;62.90;;;17.60;61.41;100858.75;12259243;19;20031;-86
2022/10/25 01:44:23;;;;;;;1.65;1.38;;;18.40;63.00;;;17.47;61.38;100829.03;12278532;19;20022;-86
2022/10/25 01:48:33;;;;;;;4.00;1.30;;;18.40;63.00;;;17.54;61.40;100848.69;12287960;19;20011;-87
2022/10/25 01:52:35;;;;;;;2.38;1.63;;;18.40;63.10;;;17.62;61.63;100850.72;12293613;19;20014;-87
2022/10/25 01:57:06;;;;;;;2.05;1.10;;;18.40;63.20;;;17.53;61.47;100849.69;12292924;19;20025;-88
2022/10/25 02:01:41;;;;;;;2.40;1.70;;;18.40;63.30;;;17.60;61.62;100861.38;12294158;19;19998;-88
2022/10/25 02:06:00;;;;;;;3.40;1.52;;;18.40;63.40;;;17.62;61.73;100858.63;12291036;19;20019;-87
2022/10/25 02:10:18;;;;;;;2.60;1.40;;;18.50;63.40;;;17.58;61.58;100857.19;12290574;19;20028;-87
2022/10/25 02:14:36;;;;;;;1.60;1.30;;;18.40;63.40;;;17.55;61.49;100844.25;12288545;19;20015;-88
2022/10/25 02:18:43;;;;;;;1.40;1.30;;;18.40;63.30;;;17.25;61.41;100814.13;12288452;19;20022;-87
2022/10/25 02:22:46;;;;;;;2.58;1.20;;;18.40;63.30;;;17.54;61.50;100847.88;12288864;19;20034;-87
2022/10/25 02:26:50;;;;;;;2.60;1.33;;;18.40;63.20;;;17.55;61.52;100858.31;12280504;19;20006;-88
2022/10/25 02:30:53;;;;;;;1.95;1.60;;;18.30;63.10;;;17.52;61.55;100852.44;12276894;19;20014;-87
2022/10/25 02:34:55;;;;;;;2.88;1.75;;;18.30;63.20;;;17.50;61.52;100865.78;12274211;19;20011;-88
2022/10/25 02:38:58;;;;;;;3.83;1.52;;;18.30;63.20;;;17.45;61.65;100860.88;12271016;19;20037;-88
2022/10/25 02:42:59;;;;;;;3.00;1.30;;;18.30;63.30;;;17.54;61.59;100871.63;12270822;19;20042;-88
2022/10/25 02:47:01;;;;;;;4.65;1.25;;;18.20;63.20;;;17.51;61.85;100862.16;12268264;19;20018;-88
2022/10/25 02:51:06;;;;;;;5.07;1.83;;;18.30;63.30;;;17.37;61.70;100850.09;12274520;19;20022;-87
2022/10/25 02:55:08;;;;;;;3.72;2.35;;;18.40;63.40;;;17.44;61.68;100863.63;12273184;19;20018;-88
2022/10/25 02:59:11;;;;;;;2.00;1.65;;;18.30;63.40;;;17.04;61.73;100800.91;12271744;19;20022;-87
2022/10/25 03:03:13;;;;;;;3.20;1.50;;;18.20;63.30;;;17.47;61.53;100884.47;12271905;19;20478;-88
2022/10/25 03:07:14;;;;;;;2.28;1.63;;;18.30;63.40;;;17.46;61.73;100880.19;12269607;19;20410;-88
2022/10/25 03:11:16;;;;;;;1.75;1.35;;;18.30;63.50;;;17.32;61.75;100862.81;12274989;19;20008;-88
2022/10/25 03:15:18;;;;;;;2.22;1.40;;;18.20;63.40;;;17.41;61.84;100883.19;12275051;19;20048;-87
2022/10/25 03:19:19;;;;;;;1.20;1.10;;;18.20;63.40;;;17.35;61.92;100869.66;12274326;19;20010;-88
2022/10/25 03:23:21;;;;;;;4.28;1.88;;;18.20;63.40;;;17.26;61.80;100876.53;12274719;19;20010;-87
2022/10/25 03:27:22;;;;;;;3.60;1.98;;;18.20;63.30;;;17.40;61.81;100900.00;12271965;19;20111;-88
2022/10/25 03:31:24;;;;;;;1.85;1.35;;;18.20;63.50;;;17.43;61.99;100901.56;12270471;19;20003;-88
2022/10/25 03:35:26;;;;;;;2.40;1.23;;;18.20;63.60;;;17.34;61.89;100894.41;12270366;19;20010;-88
2022/10/25 03:39:27;;;;;;;1.48;1.33;;;18.20;63.60;;;17.42;61.70;100905.16;12267498;19;20014;-88
2022/10/25 03:43:29;;;;;;;8.05;1.65;;;18.30;64.00;;;17.34;61.88;100900.50;12266707;19;20023;-88
2022/10/25 03:47:31;;;;;;;4.90;1.50;;;18.10;63.70;;;17.27;61.76;100887.94;12260323;19;20011;-88
2022/10/25 03:51:32;;;;;;;1.48;1.33;;;18.10;64.40;;;17.38;61.77;100909.00;12264728;19;20019;-87
2022/10/25 03:55:35;;;;;;;2.75;1.60;;;18.10;63.80;;;17.32;62.06;100923.53;12272955;19;20018;-88
2022/10/25 03:59:36;;;;;;;5.75;1.60;;;18.10;63.70;;;17.34;62.07;100926.06;12280743;19;20024;-89
2022/10/25 04:03:38;;;;;;;4.00;1.40;;;18.10;64.10;;;17.31;61.89;100926.28;12279057;19;20018;-89
2022/10/25 04:07:39;;;;;;;2.25;1.48;;;18.30;64.30;;;17.25;62.06;100928.50;12268632;19;20039;-87
2022/10/25 04:11:41;;;;;;;2.45;1.40;;;18.00;64.10;;;17.25;61.97;100930.25;12271171;19;20014;-87
2022/10/25 04:15:42;;;;;;;4.25;1.40;;;18.00;64.20;;;17.15;61.83;100916.16;12267738;19;20072;-87
2022/10/25 04:19:44;;;;;;;1.45;1.25;;;18.00;64.20;;;17.13;61.91;100916.25;12271478;19;20047;-88
2022/10/25 04:23:47;;;;;;;1.50;1.00;;;18.00;64.30;;;17.10;62.13;100919.16;12269136;19;20021;-89
2022/10/25 04:27:51;;;;;;;2.75;1.00;;;18.20;64.50;;;17.16;61.82;100931.00;12265007;19;20021;-87
2022/10/25 04:31:53;;;;;;;1.35;1.05;;;18.00;64.30;;;17.14;62.02;100931.13;12268957;19;20022;-87
2022/10/25 04:35:55;;;;;;;2.05;1.60;;;18.00;64.40;;;17.19;61.96;100939.50;12269786;19;20010;-88
2022/10/25 04:39:57;;;;;;;1.77;1.45;;;17.90;64.30;;;17.17;61.81;100948.50;12268279;19;20107;-87
2022/10/25 04:43:59;;;;;;;1.75;1.13;;;18.00;64.40;;;17.15;61.97;100937.25;12270835;19;20010;-88
2022/10/25 04:48:02;;;;;;;2.88;1.52;;;17.90;64.30;;;17.07;62.17;100923.84;12263809;19;20376;-88
2022/10/25 04:52:04;;;;;;;1.27;1.17;;;18.00;64.40;;;17.08;62.14;100926.34;12271271;19;20036;-88
2022/10/25 04:56:13;;;;;;;1.27;1.20;;;18.00;64.40;;;17.10;61.96;100934.97;12264756;19;20031;-88
2022/10/25 05:00:20;;;;;;;2.40;1.10;;;17.90;64.40;;;17.05;61.92;100921.31;12267334;19;20027;-87
2022/10/25 05:04:21;;;;;;;1.70;0.95;;;17.90;64.40;;;17.07;61.98;100927.31;12272334;19;20021;-86
2022/10/25 05:08:23;;;;;;;1.38;0.90;;;17.90;64.40;;;17.08;62.23;100936.06;12270430;19;20019;-86
2022/10/25 05:12:25;;;;;;;1.08;0.88;;;17.90;64.40;;;17.01;62.15;100936.56;12274977;19;20014;-85
2022/10/25 05:16:26;;;;;;;1.80;1.00;;;17.80;64.30;;;16.83;62.21;100905.50;12272286;19;20009;-86
2022/10/25 05:20:28;;;;;;;1.33;1.10;;;17.80;64.30;;;16.94;62.11;100924.78;12274523;19;20030;-86
2022/10/25 05:24:30;;;;;;;1.73;1.25;;;17.90;64.40;;;16.93;62.07;100924.91;12272181;19;20015;-85
2022/10/25 05:28:34;;;;;;;3.25;1.40;;;17.80;64.40;;;16.98;61.98;100947.31;12269233;19;20006;-86
2022/10/25 05:32:35;;;;;;;2.10;1.67;;;17.80;64.50;;;16.75;62.07;100914.81;12272295;19;20039;-86
2022/10/25 05:36:37;;;;;;;2.83;1.77;;;17.80;64.60;;;16.88;62.22;100943.75;12271758;19;20431;-85
2022/10/25 05:40:39;;;;;;;1.95;1.55;;;17.70;64.40;;;16.88;62.13;100932.38;12271501;19;20448;-85
2022/10/25 05:44:41;;;;;;;2.38;1.30;;;17.70;64.40;;;16.96;62.34;100948.44;12269938;19;20019;-85
2022/10/25 05:48:43;;;;;;;4.05;1.60;;;17.70;64.50;;;16.96;62.12;100964.25;12268410;19;20465;-87
2022/10/25 05:52:44;;;;;;;1.77;1.33;;;17.70;64.50;;;16.94;62.37;100968.81;12268014;19;20062;-88
2022/10/25 05:56:46;;;;;;;1.63;1.30;;;17.70;64.70;;;16.86;62.27;100958.84;12268335;19;20015;-86
2022/10/25 06:00:47;;;;;;;3.55;1.20;;;17.70;64.50;;;16.91;62.02;100977.81;12269160;19;20014;-87
2022/10/25 06:04:49;;;;;;;3.50;1.23;;;17.70;64.60;;;16.91;62.31;100977.81;12261885;19;20014;-85
2022/10/25 06:08:59;;;;;;;3.28;1.20;;;17.70;64.60;;;16.86;62.28;100990.50;12264036;19;20038;-86
2022/10/25 06:13:01;;;;;;;1.50;1.05;;;17.60;64.50;;;16.86;62.22;100989.66;12266392;19;20066;-85
2022/10/25 06:17:02;;;;;;;2.67;1.25;;;17.70;64.60;;;16.87;62.24;100993.97;12266964;19;20480;-85
2022/10/25 06:21:14;;;;;;;2.10;1.10;;;17.60;64.60;;;16.85;62.11;101004.66;12272613;19;20370;-85
2022/10/25 06:25:15;;;;;;;1.63;1.20;;;17.70;64.80;;;16.66;62.34;100978.84;12270655;19;20022;-87
2022/10/25 06:29:17;;;;;;;1.20;0.95;;;17.70;64.90;;;16.88;62.29;101008.88;12267497;19;20023;-86
2022/10/25 06:33:19;;;;;;;2.75;1.13;;;17.60;64.80;;;16.87;62.28;101009.81;12273900;19;20014;-86
2022/10/25 06:37:21;;;;;;;1.92;1.27;;;17.70;65.10;;;16.75;62.43;100999.22;12269246;19;20035;-85
2022/10/25 06:41:26;;;;;;;4.40;1.30;;;17.60;64.90;;;16.85;62.17;101017.00;12274590;19;20043;-85
2022/10/25 06:45:28;;;;;;;1.85;1.20;;;17.70;65.10;;;16.76;62.46;101014.06;12271043;19;20019;-85
2022/10/25 06:49:30;;;;;;;1.83;1.20;;;17.60;65.10;;;16.74;62.34;101000.19;12269681;19;20014;-85
2022/10/25 06:53:32;;;;;;;2.53;1.48;;;17.60;65.10;;;16.87;62.28;101039.66;12269791;19;20373;-87
2022/10/25 06:57:33;;;;;;;2.17;1.13;;;17.60;65.20;;;16.76;62.51;101019.34;12263638;19;20018;-85
2022/10/25 07:01:35;;;;;;;5.00;1.30;;;17.60;65.40;;;16.72;62.39;101017.91;12269384;19;20019;-86
2022/10/25 07:05:36;;;;;;;2.35;1.00;;;17.70;65.50;;;16.85;62.74;101043.38;12266774;19;20019;-85
2022/10/25 07:09:38;;;;;;;1.90;1.00;;;17.70;65.60;;;16.83;62.69;101042.66;12267539;19;20026;-85
2022/10/25 07:13:40;;;;;;;2.67;1.30;;;17.80;65.90;;;16.88;62.72;101048.44;12269811;19;20038;-86
2022/10/25 07:17:42;;;;;;;1.48;1.00;;;17.80;65.90;;;16.93;62.44;101054.16;12267124;19;20373;-86
2022/10/25 07:21:44;;;;;;;1.50;1.13;;;17.70;65.70;;;16.88;62.53;101045.78;12266461;19;20383;-85
2022/10/25 07:25:45;;;;;;;2.00;0.88;;;17.70;65.70;;;16.92;62.50;101048.06;12266975;19;20031;-87
2022/10/25 07:29:48;;;;;;;3.95;1.50;;;17.70;65.60;;;16.85;62.62;101041.59;12263112;19;20026;-86
2022/10/25 07:33:52;;;;;;;1.25;0.85;;;17.80;65.60;;;16.97;62.88;101064.38;12273412;19;20018;-86
2022/10/25 07:37:54;;;;;;;2.38;1.30;;;17.90;65.60;;;17.01;62.73;101063.19;12268318;19;20006;-87
2022/10/25 07:41:55;;;;;;;2.35;1.10;;;17.80;65.50;;;16.99;62.76;101062.47;12271998;19;20011;-86
2022/10/25 07:45:57;;;;;;;2.55;1.15;;;17.80;65.50;;;17.01;62.76;101068.47;12273638;19;20038;-87
2022/10/25 07:49:59;;;;;;;2.88;0.85;;;17.90;65.50;;;17.05;62.63;101079.63;12270111;19;20017;-87
2022/10/25 07:54:01;;;;;;;3.20;1.77;;;17.90;65.30;;;16.98;62.65;101066.06;12271929;19;20010;-87
2022/10/25 07:58:07;;;;;;;2.40;1.00;;;17.90;65.30;;;16.58;62.80;101000.50;12266177;19;20015;-86
2022/10/25 08:02:11;;;;;;;0.80;0.77;;;17.90;65.20;;;17.07;62.62;101080.34;12270554;19;20070;-86
2022/10/25 08:06:13;;;;;;;1.60;1.05;;;17.90;65.20;;;16.59;62.79;101001.34;12269891;19;20010;-86
2022/10/25 08:10:16;;;;;;;1.63;1.05;;;18.00;65.40;;;17.09;62.92;101081.06;12267674;19;20049;-87
2022/10/25 08:14:18;;;;;;;5.55;1.02;;;17.90;65.20;;;17.09;62.76;101081.06;12270928;19;20014;-86
2022/10/25 08:18:19;;;;;;;1.00;0.88;;;17.90;65.20;;;17.12;62.79;101091.41;12259207;19;20019;-86
2022/10/25 08:22:21;;;;;;;1.63;1.13;;;17.90;65.20;;;17.14;62.59;101086.00;12266741;19;20033;-86
2022/10/25 08:26:25;;;;;;;2.70;1.20;;;18.00;65.40;;;17.08;62.62;101084.66;12266194;19;20018;-86
2022/10/25 08:30:26;;;;;;;3.05;0.90;;;18.10;65.50;;;17.06;62.88;101075.19;12266285;19;20010;-87
2022/10/25 08:34:28;;;;;;;2.20;1.13;;;18.00;65.40;;;17.19;62.71;101091.75;12266470;19;20073;-86
2022/10/25 08:38:30;;;;;;;4.13;1.30;;;18.00;65.50;;;17.19;62.81;101100.50;12263261;19;20015;-86
2022/10/25 08:42:57;;;;;;;4.07;1.30;;;18.00;65.20;;;17.22;62.76;101102.06;12273519;19;20018;-86
2022/10/25 08:47:25;;;;;;;3.78;1.17;;;18.10;65.30;;;17.16;62.90;101092.84;12273343;19;20694;-85
2022/10/25 08:51:53;;;;;;;1.95;1.05;;;18.10;65.40;;;17.28;62.83;101114.78;12264053;19;20035;-87
2022/10/25 08:55:56;;;;;;;4.70;1.00;;;18.10;65.80;;;17.34;62.93;101110.88;12267372;19;20477;-86
2022/10/25 09:00:09;;;;;;;3.67;1.10;;;18.20;66.00;;;17.26;62.78;101095.63;12265019;19;20048;-87
2022/10/25 09:04:11;;;;;;;1.55;1.00;;;18.20;66.10;;;17.28;62.75;101100.75;12268739;19;20043;-86
2022/10/25 09:08:33;;;;;;;3.45;1.70;;;18.20;66.20;;;17.31;62.98;101105.78;12267767;19;20034;-86
2022/10/25 09:12:48;;;;;;;1.83;0.90;;;18.20;66.40;;;17.34;63.16;101108.22;12266259;19;20038;-86
2022/10/25 09:16:58;;;;;;;;;;;18.20;66.60;;;17.30;62.76;101104.13;12265390;19;20010;-87
2022/10/25 09:21:06;;;;;;;0.60;0.60;;;18.20;66.00;;;17.25;62.94;101092.13;12263852;19;20337;-86
2022/10/25 09:25:24;;;;;;;2.50;1.15;;;18.50;66.90;;;17.41;63.08;101118.16;12261246;19;20023;-86
2022/10/25 09:29:45;;;;;;;2.17;1.00;;;18.30;66.80;;;17.45;63.07;101122.25;12259412;19;20023;-86
2022/10/25 09:33:49;;;;;;;3.17;1.10;;;18.30;67.30;;;17.51;63.12;101115.66;12263266;19;20034;-86
2022/10/25 09:38:10;;;;;;;2.47;1.17;;;18.40;67.00;;;17.29;63.26;101081.34;12259514;19;20011;-86
2022/10/25 09:42:28;;;;;;;3.88;1.50;;;18.40;67.10;;;17.40;63.14;101092.72;12262733;19;20496;-86
2022/10/25 09:46:37;;;;;;;1.83;1.00;;;18.50;67.00;;;17.63;63.22;101132.31;12259865;19;20015;-86
2022/10/25 09:50:49;;;;;;;1.83;0.90;;;18.50;67.50;;;17.67;63.17;101124.06;12262382;19;20015;-86
2022/10/25 09:55:27;;;;;;;1.58;0.93;;;18.50;67.30;;;17.77;63.13;101134.75;12262927;19;20007;-86
2022/10/25 09:59:30;;;;;;;2.83;0.90;;;18.60;66.90;;;17.79;63.08;101140.75;12263306;19;20006;-86
2022/10/25 10:03:35;;;;;;;2.42;1.20;;;18.70;66.80;;;17.61;63.21;101111.34;12264325;19;20031;-85
2022/10/25 10:07:37;;;;;;;5.32;1.17;;;18.70;66.40;;;17.80;63.20;101141.63;12261056;19;20011;-86
2022/10/25 10:11:40;;;;;;;4.20;1.67;;;18.70;66.20;;;17.83;63.05;101144.84;12262903;19;20108;-87
2022/10/25 10:16:05;;;;;;;3.85;1.50;;;18.70;65.90;;;17.85;63.19;101150.88;12271940;19;20040;-86
2022/10/25 10:20:16;;;;;;;3.53;1.40;;;18.80;65.80;;;17.90;63.09;101158.41;12268373;19;20043;-86
2022/10/25 10:24:30;;;;;;;1.85;1.00;;;18.80;65.40;;;17.88;63.05;101147.13;12272127;19;20049;-87
2022/10/25 10:28:31;;;;;;;1.33;1.20;;;18.80;65.40;;;17.90;62.96;101139.91;12268680;19;20482;-86
2022/10/25 10:32:39;;;;;;;4.53;1.20;;;19.10;65.40;;;17.74;63.36;101128.84;12267384;19;20014;-86
2022/10/25 10:36:44;;;;;;;3.10;1.20;;;18.90;65.20;;;18.01;62.96;101166.34;12261563;19;20023;-85
2022/10/25 10:40:48;;;;;;;1.20;0.93;;;19.00;65.40;;;17.84;63.16;101124.56;12261995;19;20046;-86
2022/10/25 10:45:08;;;;;;;1.83;0.90;;;18.90;65.40;;;18.06;63.00;101161.50;12257624;19;20382;-85
2022/10/25 10:49:09;;;;;;;1.77;0.88;;;19.00;65.20;;;17.91;63.02;101131.88;12256235;19;20083;-85
2022/10/25 10:53:28;;;;;;;2.50;0.98;;;19.00;65.10;;;18.12;63.22;101171.63;12265868;19;20026;-86
2022/10/25 10:57:34;;;;;;;2.72;1.00;;;19.00;64.90;;;18.09;63.06;101153.34;12261003;19;20007;-88
2022/10/25 11:01:36;;;;;;;1.90;0.90;;;19.10;65.10;;;18.12;63.15;101149.63;12254005;19;20014;-87
2022/10/25 11:05:38;;;;;;;1.52;0.80;;;19.10;64.70;;;18.08;62.99;101132.31;12261724;19;20369;-86
2022/10/25 11:09:40;;;;;;;1.38;0.93;;;19.40;64.40;;;18.29;63.22;101161.47;12261895;19;20003;-85
2022/10/25 11:13:56;;;;;;;3.13;1.13;;;19.40;64.30;;;18.34;62.82;101173.38;12259862;19;20021;-86
2022/10/25 11:18:03;;;;;;;1.10;1.00;;;19.20;64.30;;;18.37;62.78;101172.28;12257977;19;20018;-85
2022/10/25 11:22:46;;;;;;;1.48;1.13;;;19.20;63.70;;;18.30;62.89;101157.88;12259445;19;20082;-85
2022/10/25 11:27:12;;;;;;;2.65;1.00;;;19.30;64.20;;;18.35;62.78;101164.47;12259952;19;20381;-85
2022/10/25 11:31:55;;;;;;;4.15;1.02;;;19.50;64.20;;;18.44;62.89;101170.78;12262428;19;20022;-84
2022/10/25 11:36:30;;;;;;;1.00;0.75;;;19.30;63.70;;;18.49;62.73;101165.13;12255035;19;20154;-84
2022/10/25 11:40:40;;;;;;;0.73;0.70;;;19.40;63.80;;;18.50;62.82;101165.03;12261934;19;20007;-85
2022/10/25 11:45:05;;;;;;;5.90;1.00;;;19.40;63.20;;;18.61;62.80;101172.09;12259365;19;20022;-84
2022/10/25 11:49:34;;;;;;;1.13;0.83;;;19.50;63.60;;;18.68;62.71;101181.19;12253844;19;20346;-85
2022/10/25 11:54:35;;;;;;;2.38;0.90;;;19.60;62.60;;;18.65;62.68;101167.38;12255534;19;20023;-86
2022/10/25 11:59:14;;;;;;;2.83;1.02;;;19.60;62.70;;;18.58;62.60;101144.09;12251237;19;20035;-88
2022/10/25 12:04:12;;;;;;;1.23;1.00;;;19.70;61.80;;;18.79;62.34;101161.81;12260675;19;20011;-87
2022/10/25 12:08:54;;;;;;;1.95;1.13;;;19.70;61.80;;;18.85;62.49;101160.44;12258002;19;20031;-86
2022/10/25 12:13:02;;;;;;;2.70;1.10;;;19.90;61.70;;;18.95;62.60;101175.44;12259853;19;20010;-85
2022/10/25 12:17:31;;;;;;;2.95;1.13;;;19.90;61.10;;;18.99;62.26;101173.41;12269480;19;20029;-85
2022/10/25 12:22:06;;;;;;;1.20;1.00;;;20.00;59.80;;;18.91;62.13;101166.09;12272888;19;20017;-86
2022/10/25 12:26:33;;;;;;;5.03;1.48;;;20.00;59.90;;;19.00;62.27;101177.72;12263696;19;20025;-86
2022/10/25 12:30:36;;;;;;;2.08;1.05;;;20.00;59.80;;;18.94;62.12;101167.66;12268366;19;20433;-85
2022/10/25 12:34:52;;;;;;;2.05;1.38;;;20.00;60.30;;;19.00;61.98;101188.31;12273143;19;20025;-86
2022/10/25 12:38:57;;;;;;;1.58;1.08;;;19.90;59.60;;;18.95;61.83;101186.03;12257850;19;20025;-86
2022/10/25 12:43:12;;;;;;;1.35;0.95;;;19.90;59.60;;;18.98;62.09;101193.75;12267528;19;20013;-87
2022/10/25 12:48:03;;;;;;;1.17;0.90;;;19.90;59.60;;;18.95;61.87;101188.66;12265249;19;20393;-86
2022/10/25 12:52:26;;;;;;;1.00;0.88;;;19.90;59.80;;;18.91;61.81;101179.31;12270190;19;20480;-86
2022/10/25 12:56:59;;;;;;;2.20;0.80;;;19.90;59.70;;;18.98;61.95;101180.50;12263320;19;20015;-86
2022/10/25 13:01:18;;;;;;;1.52;1.00;;;19.90;59.80;;;18.95;62.07;101164.84;12267105;19;20010;-87
2022/10/25 13:06:17;;;;;;;3.08;0.80;;;19.90;59.60;;;19.10;61.94;101191.88;12267222;19;20015;-87
2022/10/25 13:10:22;;;;;;;2.65;1.15;;;20.00;59.90;;;19.17;61.47;101181.59;12255140;19;20333;-87
2022/10/25 13:14:46;;;;;;;2.13;1.27;;;20.00;59.60;;;19.13;61.48;101188.13;12264594;19;20015;-87
2022/10/25 13:19:07;;;;;;;2.15;1.25;;;20.20;59.60;;;18.90;61.32;101135.31;12261125;19;20423;-88
2022/10/25 13:23:50;;;;;;;1.25;0.93;;;20.10;59.10;;;19.18;61.52;101196.53;12261731;19;20018;-86
2022/10/25 13:28:10;;;;;;;1.65;0.95;;;20.10;59.40;;;19.18;61.47;101196.53;12260892;19;20007;-87
2022/10/25 13:32:20;;;;;;;3.63;1.20;;;20.10;59.30;;;19.13;61.33;101193.41;12267216;19;20022;-87
2022/10/25 13:36:48;;;;;;;4.15;0.88;;;20.10;59.40;;;19.16;61.58;101216.97;12262378;19;20469;-88
2022/10/25 13:41:18;;;;;;;4.53;1.13;;;20.10;60.00;;;19.11;61.16;101200.63;12262565;19;20458;-89
2022/10/25 13:45:42;;;;;;;3.42;0.88;;;20.10;60.80;;;19.06;61.58;101216.06;12260938;19;20003;-87
2022/10/25 13:49:47;;;;;;;1.23;0.70;;;20.00;60.80;;;19.04;61.47;101226.81;12259439;19;20393;-86
2022/10/25 13:53:53;;;;;;;4.57;0.90;;;19.90;61.30;;;19.01;61.49;101217.31;12259521;19;20031;-85
2022/10/25 13:57:57;;;;;;;1.95;0.90;;;19.90;61.60;;;19.03;61.56;101225.09;12257288;19;20321;-85
2022/10/25 14:02:19;;;;;;;1.30;0.82;;;19.80;61.90;;;19.02;61.46;101236.66;12261320;19;20078;-87
2022/10/25 14:06:34;;;;;;;1.30;0.90;;;19.90;62.30;;;18.98;61.50;101237.88;12258381;19;20031;-86
2022/10/25 14:10:37;;;;;;;2.13;1.20;;;19.90;62.30;;;18.89;61.54;101236.00;12258033;19;20011;-87
2022/10/25 14:15:11;;;;;;;4.13;1.27;;;19.80;62.50;;;18.81;61.46;101249.84;12258662;19;20011;-88
2022/10/25 14:19:48;;;;;;;4.28;1.08;;;19.70;62.40;;;18.76;61.48;101257.31;12253402;19;20039;-86
2022/10/25 14:23:51;;;;;;;3.50;1.30;;;19.60;62.40;;;18.58;61.40;101222.59;12254502;19;20014;-86
2022/10/25 14:28:15;;;;;;;3.22;1.27;;;19.50;62.30;;;18.66;61.55;101251.06;12254537;19;20018;-85
2022/10/25 14:32:20;;;;;;;1.23;1.10;;;19.50;62.70;;;18.57;61.47;101247.34;12257847;19;20007;-86
2022/10/25 14:36:32;;;;;;;2.80;1.10;;;19.40;62.80;;;18.63;61.41;101253.94;12251627;19;20018;-86
2022/10/25 14:40:34;;;;;;;1.65;1.08;;;19.30;62.70;;;18.53;61.55;101233.53;12258385;19;20011;-86
2022/10/25 14:44:49;;;;;;;3.03;1.20;;;19.40;62.50;;;18.31;61.50;101212.44;12253991;19;20014;-86
2022/10/25 14:48:57;;;;;;;1.55;0.90;;;19.30;62.40;;;18.45;61.51;101245.72;12247828;19;20027;-85
2022/10/25 14:52:59;;;;;;;0.85;0.80;;;19.30;62.40;;;18.21;61.69;101211.50;12253195;19;20753;-86
2022/10/25 14:57:10;;;;;;;1.42;0.90;;;19.20;62.50;;;18.42;61.41;101251.25;12249499;19;20014;-86
2022/10/25 15:01:19;;;;;;;1.45;1.00;;;19.20;62.60;;;18.40;61.38;101266.41;12251967;19;20010;-86
2022/10/25 15:05:23;;;;;;;2.78;1.00;;;19.10;62.90;;;18.39;61.64;101267.34;12252472;19;20010;-86
2022/10/25 15:09:25;;;;;;;2.03;1.10;;;19.10;63.10;;;18.28;61.52;101255.84;12251043;19;20016;-85
2022/10/25 15:13:44;;;;;;;1.48;1.00;;;19.10;63.10;;;18.35;61.52;101264.09;12250967;19;20013;-84
2022/10/25 15:17:52;;;;;;;2.20;1.17;;;19.10;63.20;;;18.26;61.72;101254.28;12248383;19;20057;-86
2022/10/25 15:22:07;;;;;;;14.35;10.38;;;19.10;63.10;;;18.17;61.68;101239.13;12251764;19;20055;-85
2022/10/25 15:26:28;;;;;;;6.25;4.85;;;19.00;63.00;;;18.27;61.58;101263.88;12248536;19;20011;-85
2022/10/25 15:30:44;;;;;;;7.82;6.90;;;19.00;63.00;;;18.18;61.64;101254.88;12248053;19;20009;-85
2022/10/25 15:34:51;;;;;;;;;;;19.00;63.10;;;18.09;61.53;101250.28;12249770;19;20406;-85
2022/10/25 15:39:13;;;;;;;5.90;2.28;;;18.90;62.90;;;18.14;61.56;101262.19;12246880;19;19923;-86
2022/10/25 15:43:14;;;;;;;3.05;1.90;;;18.90;62.90;;;18.16;61.67;101255.94;12250263;19;20106;-85
2022/10/25 15:47:33;;;;;;;3.25;1.70;;;18.90;63.00;;;18.03;61.73;101246.31;12249190;19;20015;-86
2022/10/25 15:51:38;;;;;;;2.60;2.22;;;18.80;63.10;;;17.94;61.52;101238.28;12263364;19;20011;-86
2022/10/25 15:55:41;;;;;;;2.72;2.35;;;18.90;63.10;;;18.09;61.46;101271.44;12262194;19;20010;-87
2022/10/25 15:59:43;;;;;;;3.45;3.15;;;19.10;63.00;;;18.11;61.62;101273.00;12262405;19;20018;-86
2022/10/25 16:03:45;;;;;;;3.28;2.70;;;18.80;62.80;;;18.04;61.71;101263.88;12263263;19;20028;-85
2022/10/25 16:07:47;;;;;;;3.03;2.72;;;18.90;62.80;;;17.94;61.57;101255.00;12254543;19;20015;-86
2022/10/25 16:11:53;;;;;;;3.28;2.97;;;18.80;62.70;;;17.96;61.39;101260.13;12260778;19;20021;-85
2022/10/25 16:15:55;;;;;;;3.80;2.78;;;18.90;62.60;;;17.95;61.46;101275.16;12256396;19;20418;-85
2022/10/25 16:19:56;;;;;;;3.70;2.50;;;19.00;62.40;;;17.93;61.47;101279.75;12260999;19;20015;-86
2022/10/25 16:23:58;;;;;;;4.03;2.97;;;18.80;62.10;;;17.89;61.47;101286.22;12256844;19;20070;-86
2022/10/25 16:28:00;;;;;;;2.55;2.35;;;18.60;61.90;;;17.77;61.49;101271.25;12255862;19;20021;-86
2022/10/25 16:32:04;;;;;;;2.83;2.63;;;18.60;61.70;;;17.53;61.53;101253.72;12257779;19;20028;-86
2022/10/25 16:36:06;;;;;;;2.83;2.60;;;18.50;61.70;;;17.75;61.51;101303.09;12258002;19;20014;-86
2022/10/25 16:40:12;;;;;;;3.30;3.00;;;18.50;62.00;;;17.64;61.37;101293.34;12260185;19;20492;-86
2022/10/25 16:44:17;;;;;;;3.70;2.90;;;18.40;62.10;;;17.54;61.58;101287.06;12259463;19;20047;-86
2022/10/25 16:48:19;;;;;;;2.92;2.70;;;18.40;61.90;;;17.55;61.48;101294.06;12257426;19;20472;-86
2022/10/25 16:52:22;;;;;;;2.80;2.60;;;18.40;61.70;;;17.51;61.51;101311.06;12263376;19;20086;-87
2022/10/25 16:56:24;;;;;;;6.85;2.47;;;18.20;61.70;;;17.54;61.47;101324.03;12257961;19;20011;-86
2022/10/25 17:00:28;;;;;;;3.55;2.58;;;18.30;61.90;;;17.48;61.62;101316.59;12257324;19;20035;-86
2022/10/25 17:04:29;;;;;;;2.58;2.38;;;18.20;61.30;;;17.32;61.24;101302.84;12259663;19;20003;-86
2022/10/25 17:08:30;;;;;;;2.92;2.53;;;18.20;61.30;;;17.38;61.33;101328.78;12254151;19;20015;-86